Time;durP1;ratioP1;P1;durP2;ratioP2;P2;SDS_P1;SDS_P2;PMS_P1;PMS_P2;Temp;Humidity;BMP_temperature;BMP_pressure;BME280_temperature;BME280_humidity;BME280_pressure;Samples;Min_cycle;Max_cycle;Signal;HPM_P1;HPM_P2
2022/11/02 00:00:26;;;;;;;;;;;;;;;13.44;79.94;100633.97;7387899;19;19935;-61
2022/11/02 00:02:53;;;;;;;;;;;;;;;13.39;78.47;100636.34;7391512;19;20334;-61
2022/11/02 00:05:23;;;;;;;;;;;;;;;13.30;77.99;100640.03;7386897;19;20705;-61
2022/11/02 00:07:51;;;;;;;;;;;;;;;13.29;78.31;100657.69;7388297;19;19939;-61
2022/11/02 00:10:18;;;;;;;;;;;;;;;13.26;79.07;100658.03;7387157;19;19954;-61
2022/11/02 00:12:46;;;;;;;;;;;;;;;13.23;77.88;100669.78;7388354;19;19977;-61
2022/11/02 00:15:13;;;;;;;;;;;;;;;13.25;79.39;100667.81;7386564;19;19949;-61
2022/11/02 00:17:41;;;;;;;;;;;;;;;13.27;78.51;100683.47;7387722;19;19926;-61
2022/11/02 00:20:09;;;;;;;;;;;;;;;13.25;77.54;100690.75;7386502;19;19953;-61
2022/11/02 00:22:36;;;;;;;;;;;;;;;13.27;79.13;100699.31;7388333;19;19983;-60
2022/11/02 00:25:05;;;;;;;;;;;;;;;13.23;77.63;100709.41;7387390;19;20262;-60
2022/11/02 00:27:34;;;;;;;;;;;;;;;13.16;77.26;100716.38;7385802;19;19941;-61
2022/11/02 00:30:01;;;;;;;;;;;;;;;13.15;77.79;100719.22;7387317;19;19926;-60
2022/11/02 00:32:28;;;;;;;;;;;;;;;13.21;79.88;100729.06;7390885;19;19915;-60
2022/11/02 00:34:55;;;;;;;;;;;;;;;13.25;79.39;100727.75;7388420;19;19914;-60
2022/11/02 00:37:22;;;;;;;;;;;;;;;13.20;77.01;100735.38;7388319;19;20039;-61
2022/11/02 00:39:49;;;;;;;;;;;;;;;13.13;77.74;100735.22;7387635;19;19914;-60
2022/11/02 00:42:16;;;;;;;;;;;;;;;13.09;77.49;100741.81;7388514;19;19923;-61
2022/11/02 00:44:43;;;;;;;;;;;;;;;13.09;78.30;100752.38;7384661;19;19922;-60
2022/11/02 00:47:11;;;;;;;;;;;;;;;13.10;77.80;100766.44;7386286;19;19933;-60
2022/11/02 00:49:38;;;;;;;;;;;;;;;13.12;78.46;100773.19;7388422;19;19914;-60
2022/11/02 00:52:05;;;;;;;;;;;;;;;13.17;79.58;100772.69;7386132;19;19926;-60
2022/11/02 00:54:32;;;;;;;;;;;;;;;13.18;77.76;100777.81;7388282;19;20512;-61
2022/11/02 00:56:59;;;;;;;;;;;;;;;13.24;78.81;100778.94;7383421;19;19923;-59
2022/11/02 00:59:26;;;;;;;;;;;;;;;13.19;76.53;100791.84;7387277;19;19919;-60
2022/11/02 01:01:53;;;;;;;;;;;;;;;13.10;76.47;100783.09;7385804;19;19982;-60
2022/11/02 01:04:20;;;;;;;;;;;;;;;13.04;76.62;100804.91;7386961;19;19952;-61
2022/11/02 01:06:48;;;;;;;;;;;;;;;13.05;77.35;100818.94;7385562;19;19986;-62
2022/11/02 01:09:15;;;;;;;;;;;;;;;13.07;77.14;100816.94;7389049;19;19919;-60
2022/11/02 01:11:42;;;;;;;;;;;;;;;13.08;77.86;100829.16;7382536;19;19926;-62
2022/11/02 01:14:09;;;;;;;;;;;;;;;13.12;77.16;100833.13;7387734;19;19914;-61
2022/11/02 01:16:37;;;;;;;;;;;;;;;13.04;75.82;100846.34;7383766;19;19938;-61
2022/11/02 01:19:04;;;;;;;;;;;;;;;12.99;76.42;100841.56;7386597;19;20348;-62
2022/11/02 01:21:31;;;;;;;;;;;;;;;13.01;77.02;100860.69;7383486;19;19922;-61
2022/11/02 01:23:58;;;;;;;;;;;;;;;12.99;76.78;100859.22;7388728;19;20253;-61
2022/11/02 01:26:25;;;;;;;;;;;;;;;12.99;77.06;100865.34;7384557;19;20384;-61
2022/11/02 01:28:53;;;;;;;;;;;;;;;12.94;76.28;100866.84;7384442;19;19918;-61
2022/11/02 01:31:20;;;;;;;;;;;;;;;12.89;76.95;100872.63;7384931;19;20333;-60
2022/11/02 01:33:47;;;;;;;;;;;;;;;12.89;77.10;100879.72;7387873;19;19947;-61
2022/11/02 01:36:15;;;;;;;;;;;;;;;12.90;77.03;100871.59;7388036;19;19936;-61
2022/11/02 01:38:42;;;;;;;;;;;;;;;12.93;77.49;100889.78;7387785;19;20385;-60
2022/11/02 01:41:10;;;;;;;;;;;;;;;12.98;78.27;100891.91;7383024;19;20285;-60
2022/11/02 01:43:40;;;;;;;;;;;;;;;12.96;77.49;100904.44;7383163;19;20595;-60
2022/11/02 01:46:11;;;;;;;;;;;;;;;13.01;79.27;100899.50;7385706;19;19919;-60
2022/11/02 01:48:38;;;;;;;;;;;;;;;13.07;79.72;100909.41;7386242;19;19990;-61
2022/11/02 01:51:08;;;;;;;;;;;;;;;13.06;78.26;100913.03;7385614;19;19926;-60
2022/11/02 01:53:38;;;;;;;;;;;;;;;13.06;78.30;100924.41;7384798;19;19948;-59
2022/11/02 01:56:06;;;;;;;;;;;;;;;13.00;77.34;100929.56;7384476;19;19919;-61
2022/11/02 01:58:34;;;;;;;;;;;;;;;12.91;77.33;100936.63;7382025;19;19926;-60
2022/11/02 02:01:01;;;;;;;;;;;;;;;12.85;77.76;100945.22;7386244;19;19923;-61
2022/11/02 02:03:29;;;;;;;;;;;;;;;12.78;78.12;100941.59;7386510;19;19944;-61
2022/11/02 02:05:59;;;;;;;;;;;;;;;12.78;79.34;100950.34;7385289;19;19935;-59
2022/11/02 02:08:26;;;;;;;;;;;;;;;12.77;78.93;100948.69;7385196;19;20545;-61
2022/11/02 02:10:55;;;;;;;;;;;;;;;12.72;79.57;100953.63;7387427;19;20508;-61
2022/11/02 02:13:22;;;;;;;;;;;;;;;12.79;81.07;100951.19;7384793;19;19930;-62
2022/11/02 02:16:01;;;;;;;;;;;;;;;12.79;80.39;100957.28;7383594;19;19922;-60
2022/11/02 02:18:33;;;;;;;;;;;;;;;12.79;80.20;100959.94;7386951;19;19943;-61
2022/11/02 02:21:10;;;;;;;;;;;;;;;12.76;79.90;100962.88;7385540;19;19978;-61
2022/11/02 02:23:50;;;;;;;;;;;;;;;12.74;80.05;100967.50;7387250;19;19918;-61
2022/11/02 02:26:27;;;;;;;;;;;;;;;12.72;80.39;100969.47;7382781;19;19925;-60
2022/11/02 02:28:55;;;;;;;;;;;;;;;12.77;80.76;100969.00;7384238;19;19931;-61
2022/11/02 02:31:23;;;;;;;;;;;;;;;12.76;81.25;100977.91;7385955;19;19927;-61
2022/11/02 02:34:00;;;;;;;;;;;;;;;12.70;80.54;100989.94;7392431;19;19982;-61
2022/11/02 02:36:29;;;;;;;;;;;;;;;12.66;80.94;100983.31;7390208;19;19939;-61
2022/11/02 02:38:57;;;;;;;;;;;;;;;12.66;81.39;100982.50;7393959;19;19914;-61
2022/11/02 02:41:30;;;;;;;;;;;;;;;12.65;81.96;100980.84;7390633;19;19911;-61
2022/11/02 02:43:59;;;;;;;;;;;;;;;12.64;81.47;100981.84;7389819;19;19935;-62
2022/11/02 02:46:26;;;;;;;;;;;;;;;12.56;80.86;100987.94;7391086;19;19918;-61
2022/11/02 02:48:55;;;;;;;;;;;;;;;12.52;81.13;100994.53;7392505;19;19927;-61
2022/11/02 02:51:26;;;;;;;;;;;;;;;12.48;81.68;101003.75;7391935;19;19975;-61
2022/11/02 02:53:58;;;;;;;;;;;;;;;12.53;82.65;100998.81;7385638;19;19914;-55
2022/11/02 02:56:27;;;;;;;;;;;;;;;12.56;82.09;101009.03;7359307;19;19922;-58
2022/11/02 02:58:57;;;;;;;;;;;;;;;12.54;81.39;101013.69;7361731;19;20424;-58
2022/11/02 03:01:25;;;;;;;;;;;;;;;12.58;82.12;101019.44;7365667;19;19922;-54
2022/11/02 03:03:52;;;;;;;;;;;;;;;12.56;81.31;101021.41;7362667;19;19990;-58
2022/11/02 03:06:23;;;;;;;;;;;;;;;12.44;80.29;101021.69;7365661;19;19927;-58
2022/11/02 03:08:56;;;;;;;;;;;;;;;12.40;81.01;101035.38;7362772;19;20376;-58
2022/11/02 03:11:27;;;;;;;;;;;;;;;12.33;81.67;101037.84;7360734;19;19929;-57
2022/11/02 03:13:54;;;;;;;;;;;;;;;12.33;82.02;101042.28;7361235;19;20038;-53
2022/11/02 03:16:30;;;;;;;;;;;;;;;12.31;81.82;101038.97;7361746;19;19940;-56
2022/11/02 03:19:06;;;;;;;;;;;;;;;12.36;82.70;101047.25;7362777;19;20769;-57
2022/11/02 03:21:37;;;;;;;;;;;;;;;12.41;82.84;101045.78;7362597;19;19930;-56
2022/11/02 03:24:15;;;;;;;;;;;;;;;12.42;81.99;101046.63;7361861;19;20624;-56
2022/11/02 03:26:46;;;;;;;;;;;;;;;12.44;81.70;101055.22;7363380;19;20470;-54
2022/11/02 03:29:17;;;;;;;;;;;;;;;12.42;81.83;101060.63;7365016;19;20179;-54
2022/11/02 03:31:47;;;;;;;;;;;;;;;12.34;81.32;101063.22;7360528;19;19939;-56
2022/11/02 03:34:14;;;;;;;;;;;;;;;12.35;81.70;101064.88;7364639;19;20336;-53
2022/11/02 03:36:51;;;;;;;;;;;;;;;12.37;82.06;101057.66;7361672;19;19990;-57
2022/11/02 03:39:21;;;;;;;;;;;;;;;12.43;82.05;101061.47;7365650;19;19918;-59
2022/11/02 03:41:50;;;;;;;;;;;;;;;12.46;81.99;101069.06;7361156;19;19994;-56
2022/11/02 03:44:20;;;;;;;;;;;;;;;12.49;81.22;101074.03;7363040;19;20386;-58
2022/11/02 03:46:49;;;;;;;;;;;;;;;12.48;80.75;101076.81;7364812;19;20324;-57
2022/11/02 03:49:17;;;;;;;;;;;;;;;12.46;81.18;101084.88;7362611;19;19928;-56
2022/11/02 03:51:45;;;;;;;;;;;;;;;12.45;81.66;101077.94;7362113;19;19953;-58
2022/11/02 03:54:21;;;;;;;;;;;;;;;12.45;81.73;101083.22;7365268;19;19931;-57
2022/11/02 03:56:51;;;;;;;;;;;;;;;12.44;81.35;101098.22;7358221;19;20494;-59
2022/11/02 03:59:18;;;;;;;;;;;;;;;12.39;80.26;101103.16;7361275;19;20322;-55
2022/11/02 04:01:47;;;;;;;;;;;;;;;12.33;80.70;101111.72;7363395;19;19948;-56
2022/11/02 04:04:15;;;;;;;;;;;;;;;12.26;80.46;101115.13;7361638;19;19948;-58
2022/11/02 04:06:43;;;;;;;;;;;;;;;12.20;80.74;101116.59;7362223;19;20544;-59
2022/11/02 04:09:10;;;;;;;;;;;;;;;12.19;81.66;101122.84;7364197;19;19951;-59
2022/11/02 04:19:26;;;;;;;;;;;;;;;12.18;81.15;101139.69;7361843;19;20327;-57
2022/11/02 04:19:36;;;;;;;;;;;;;;;12.23;81.84;101147.94;7361887;19;19925;-56
2022/11/02 04:27:15;;;;;;;;;;;;;;;12.32;80.72;101154.94;7361723;19;19922;-58
2022/11/02 04:29:47;;;;;;;;;;;;;;;12.33;81.44;101153.13;7359650;19;20418;-55
2022/11/02 04:32:14;;;;;;;;;;;;;;;12.36;81.78;101172.09;7361867;19;19918;-55
2022/11/02 04:34:40;;;;;;;;;;;;;;;12.42;80.93;101175.94;7359643;19;19963;-56
2022/11/02 04:38:39;;;;;;;;;;;;;;;12.44;80.92;101177.41;7360784;19;19922;-58
2022/11/02 04:39:54;;;;;;;;;;;;;;;12.44;81.47;101176.59;7360384;19;19918;-57
2022/11/02 04:42:20;;;;;;;;;;;;;;;12.45;81.22;101172.97;7360952;19;20005;-53
2022/11/02 04:44:47;;;;;;;;;;;;;;;12.47;80.20;101178.09;7360421;19;19945;-58
2022/11/02 04:47:14;;;;;;;;;;;;;;;12.44;79.91;101181.88;7363058;19;20263;-58
2022/11/02 04:49:41;;;;;;;;;;;;;;;12.43;80.35;101178.41;7362199;19;19929;-53
2022/11/02 04:52:08;;;;;;;;;;;;;;;12.42;80.72;101181.19;7362075;19;19926;-56
2022/11/02 04:54:35;;;;;;;;;;;;;;;12.43;81.13;101183.69;7363107;19;19943;-57
2022/11/02 04:57:02;;;;;;;;;;;;;;;12.43;80.49;101185.50;7357572;19;19926;-59
2022/11/02 04:59:29;;;;;;;;;;;;;;;12.43;80.80;101186.34;7359892;19;19922;-58
2022/11/02 05:01:56;;;;;;;;;;;;;;;12.40;80.72;101181.34;7361380;19;20598;-59
2022/11/02 05:04:23;;;;;;;;;;;;;;;12.41;80.40;101190.09;7354789;19;19939;-56
2022/11/02 05:06:49;;;;;;;;;;;;;;;12.42;80.38;101189.13;7362364;19;19923;-58
2022/11/02 05:09:16;;;;;;;;;;;;;;;12.43;80.38;101190.78;7361207;19;19930;-58
2022/11/02 05:11:43;;;;;;;;;;;;;;;12.44;80.11;101200.34;7359494;19;19940;-57
2022/11/02 05:14:10;;;;;;;;;;;;;;;12.48;80.11;101192.94;7360646;19;19950;-55
2022/11/02 05:16:37;;;;;;;;;;;;;;;12.51;80.25;101204.00;7360336;19;19926;-57
2022/11/02 05:19:03;;;;;;;;;;;;;;;12.52;80.16;101215.41;7361387;19;19918;-57
2022/11/02 05:21:36;;;;;;;;;;;;;;;12.53;81.12;101215.25;7359255;19;19929;-55
2022/11/02 05:24:03;;;;;;;;;;;;;;;12.52;80.29;101213.59;7360790;19;20264;-54
2022/11/02 05:26:30;;;;;;;;;;;;;;;12.48;79.67;101211.44;7359479;19;19925;-56
2022/11/02 05:28:57;;;;;;;;;;;;;;;12.44;79.95;101209.06;7358771;19;20637;-56
2022/11/02 05:31:24;;;;;;;;;;;;;;;12.42;78.88;101207.59;7359495;19;19952;-56
2022/11/02 05:33:50;;;;;;;;;;;;;;;12.39;79.14;101215.84;7361710;19;19922;-56
2022/11/02 05:36:17;;;;;;;;;;;;;;;12.34;79.16;101216.28;7359933;19;19926;-55
2022/11/02 05:38:45;;;;;;;;;;;;;;;12.34;80.11;101208.34;7362339;19;19915;-54
2022/11/02 05:41:12;;;;;;;;;;;;;;;12.40;81.09;101210.38;7358919;19;19938;-53
2022/11/02 05:43:39;;;;;;;;;;;;;;;12.40;79.25;101207.75;7355537;19;19922;-54
2022/11/02 05:46:06;;;;;;;;;;;;;;;12.41;79.33;101206.75;7361129;19;20375;-54
2022/11/02 05:48:32;;;;;;;;;;;;;;;12.40;79.38;101202.47;7358697;19;20449;-53
2022/11/02 05:51:00;;;;;;;;;;;;;;;12.40;79.71;101205.09;7361382;19;20247;-58
2022/11/02 05:53:31;;;;;;;;;;;;;;;12.37;78.74;101204.59;7359359;19;19950;-58
2022/11/02 05:55:59;;;;;;;;;;;;;;;12.39;79.14;101205.28;7361226;19;19923;-53
2022/11/02 05:58:26;;;;;;;;;;;;;;;12.34;78.35;101203.06;7355399;19;19930;-58
2022/11/02 06:00:53;;;;;;;;;;;;;;;12.35;79.19;101206.53;7360577;19;20625;-53
2022/11/02 06:03:20;;;;;;;;;;;;;;;12.39;79.62;101221.09;7357630;19;19930;-53
2022/11/02 06:05:47;;;;;;;;;;;;;;;12.38;78.10;101211.53;7359066;19;19930;-57
2022/11/02 06:08:14;;;;;;;;;;;;;;;12.35;78.06;101206.53;7366327;19;20481;-57
2022/11/02 06:10:42;;;;;;;;;;;;;;;12.40;79.13;101209.53;7366447;19;20609;-55
2022/11/02 06:13:09;;;;;;;;;;;;;;;12.43;79.31;101215.38;7364532;19;20664;-55
2022/11/02 06:15:35;;;;;;;;;;;;;;;12.48;79.37;101211.44;7364713;19;20351;-57
2022/11/02 06:18:02;;;;;;;;;;;;;;;12.51;78.98;101219.84;7363843;19;19915;-56
2022/11/02 06:20:29;;;;;;;;;;;;;;;12.51;78.73;101206.66;7365325;19;19946;-57
2022/11/02 06:22:56;;;;;;;;;;;;;;;12.50;78.93;101207.63;7365097;19;19949;-58
2022/11/02 06:25:23;;;;;;;;;;;;;;;12.54;78.65;101214.28;7362838;19;19927;-57
2022/11/02 06:27:51;;;;;;;;;;;;;;;12.59;79.39;101214.63;7362753;19;19944;-55
2022/11/02 06:30:18;;;;;;;;;;;;;;;12.61;78.84;101212.66;7365510;19;19920;-58
2022/11/02 06:32:47;;;;;;;;;;;;;;;12.65;80.03;101210.53;7366372;19;19933;-56
2022/11/02 06:35:14;;;;;;;;;;;;;;;12.66;80.17;101207.72;7363790;19;20225;-54
2022/11/02 06:37:41;;;;;;;;;;;;;;;12.62;77.55;101208.22;7362698;19;20231;-58
2022/11/02 06:40:09;;;;;;;;;;;;;;;12.61;77.02;101211.81;7365153;19;19927;-56
2022/11/02 06:42:36;;;;;;;;;;;;;;;12.63;78.22;101202.78;7365766;19;19922;-58
2022/11/02 06:45:10;;;;;;;;;;;;;;;12.67;78.51;101204.13;7365049;19;20393;-58
2022/11/02 06:47:37;;;;;;;;;;;;;;;12.66;78.36;101210.38;7366815;19;20360;-56
2022/11/02 06:50:05;;;;;;;;;;;;;;;12.66;78.71;101213.00;7366099;19;20556;-58
2022/11/02 06:52:34;;;;;;;;;;;;;;;12.67;78.42;101212.03;7363230;19;19932;-59
2022/11/02 06:55:00;;;;;;;;;;;;;;;12.69;77.97;101225.09;7363465;19;19974;-58
2022/11/02 06:57:27;;;;;;;;;;;;;;;12.71;78.28;101226.56;7362231;19;19933;-61
2022/11/02 06:59:54;;;;;;;;;;;;;;;12.68;78.20;101223.44;7362595;19;19929;-55
2022/11/02 07:02:21;;;;;;;;;;;;;;;12.65;77.93;101239.56;7365947;19;19915;-58
2022/11/02 07:04:48;;;;;;;;;;;;;;;12.60;77.03;101234.75;7362805;19;19946;-59
2022/11/02 07:07:15;;;;;;;;;;;;;;;12.56;77.53;101243.97;7366870;19;19918;-58
2022/11/02 07:09:42;;;;;;;;;;;;;;;12.61;78.56;101241.69;7363007;19;19929;-57
2022/11/02 07:12:09;;;;;;;;;;;;;;;12.65;79.14;101236.91;7360361;19;19915;-54
2022/11/02 07:14:35;;;;;;;;;;;;;;;12.68;78.20;101239.25;7364100;19;19962;-58
2022/11/02 07:17:02;;;;;;;;;;;;;;;12.70;78.87;101238.13;7365026;19;19927;-57
2022/11/02 07:19:29;;;;;;;;;;;;;;;12.70;79.28;101243.38;7364014;19;19965;-60
2022/11/02 07:21:56;;;;;;;;;;;;;;;12.72;79.89;101237.97;7364278;19;20746;-56
2022/11/02 07:24:23;;;;;;;;;;;;;;;12.74;78.53;101238.66;7365893;19;20002;-58
2022/11/02 07:26:51;;;;;;;;;;;;;;;12.71;77.67;101242.41;7361880;19;19927;-58
2022/11/02 07:29:18;;;;;;;;;;;;;;;12.74;77.76;101249.22;7361986;19;19926;-58
2022/11/02 07:31:45;;;;;;;;;;;;;;;12.75;77.75;101250.84;7362133;19;20451;-57
2022/11/02 07:34:13;;;;;;;;;;;;;;;12.77;78.18;101248.88;7364000;19;19957;-58
2022/11/02 07:36:42;;;;;;;;;;;;;;;12.80;78.71;101245.91;7361719;19;19934;-59
2022/11/02 07:39:10;;;;;;;;;;;;;;;12.81;78.04;101251.06;7359659;19;20209;-57
2022/11/02 07:41:36;;;;;;;;;;;;;;;12.84;78.35;101252.56;7361056;19;19923;-57
2022/11/02 07:44:03;;;;;;;;;;;;;;;12.85;78.61;101252.38;7362018;19;20304;-58
2022/11/02 07:46:30;;;;;;;;;;;;;;;12.90;79.36;101259.84;7362101;19;19937;-57
2022/11/02 07:48:57;;;;;;;;;;;;;;;12.90;78.87;101249.28;7363769;19;19930;-58
2022/11/02 07:51:25;;;;;;;;;;;;;;;12.99;82.36;101252.81;7362978;19;19918;-58
2022/11/02 07:53:52;;;;;;;;;;;;;;;13.10;85.61;101253.38;7363173;19;19975;-58
2022/11/02 07:56:19;;;;;;;;;;;;;;;13.14;82.27;101259.19;7361787;19;20496;-57
2022/11/02 07:58:46;;;;;;;;;;;;;;;13.14;79.09;101267.09;7360052;19;19943;-57
2022/11/02 08:01:13;;;;;;;;;;;;;;;13.10;77.24;101261.28;7365332;19;19990;-58
2022/11/02 08:03:40;;;;;;;;;;;;;;;13.11;77.76;101264.72;7362982;19;20367;-57
2022/11/02 08:06:08;;;;;;;;;;;;;;;13.08;77.64;101265.06;7363266;19;19967;-51
2022/11/02 08:08:35;;;;;;;;;;;;;;;13.07;78.51;101271.31;7342154;19;19933;-54
2022/11/02 08:11:04;;;;;;;;;;;;;;;13.08;78.90;101273.81;7358633;19;20866;-58
2022/11/02 08:13:31;;;;;;;;;;;;;;;13.11;78.86;101270.88;7352656;19;19918;-60
2022/11/02 08:15:59;;;;;;;;;;;;;;;13.14;78.77;101278.50;7360051;19;19923;-59
2022/11/02 08:18:27;;;;;;;;;;;;;;;13.16;78.87;101280.97;7356148;19;20349;-57
2022/11/02 08:20:55;;;;;;;;;;;;;;;13.19;79.82;101273.56;7358877;19;19919;-57
2022/11/02 08:23:23;;;;;;;;;;;;;;;13.23;80.16;101271.44;7358505;19;19956;-57
2022/11/02 08:25:51;;;;;;;;;;;;;;;13.28;80.09;101280.53;7359097;19;19931;-58
2022/11/02 08:28:20;;;;;;;;;;;;;;;13.32;79.89;101274.94;7357539;19;20534;-56
2022/11/02 08:30:47;;;;;;;;;;;;;;;13.36;79.75;101268.34;7358292;19;20222;-57
2022/11/02 08:33:15;;;;;;;;;;;;;;;13.37;78.80;101267.34;7355780;19;19922;-59
2022/11/02 08:35:43;;;;;;;;;;;;;;;13.43;79.71;101264.06;7359705;19;19926;-58
2022/11/02 08:38:10;;;;;;;;;;;;;;;13.45;79.61;101262.94;7359536;19;19915;-59
2022/11/02 08:40:39;;;;;;;;;;;;;;;13.52;79.96;101269.22;7361642;19;19931;-59
2022/11/02 08:43:08;;;;;;;;;;;;;;;13.60;81.89;101266.63;7361822;19;20352;-57
2022/11/02 08:45:37;;;;;;;;;;;;;;;13.63;80.09;101270.72;7361132;19;20600;-58
2022/11/02 08:48:24;;;;;;;;;;;;;;;13.68;79.05;101273.72;7360148;19;19919;-57
2022/11/02 08:50:52;;;;;;;;;;;;;;;13.77;80.54;101275.38;7362376;19;19919;-57
2022/11/02 08:53:19;;;;;;;;;;;;;;;13.84;80.08;101275.56;7362163;19;19918;-59
2022/11/02 08:55:47;;;;;;;;;;;;;;;13.89;79.97;101275.91;7360065;19;19926;-55
2022/11/02 08:58:14;;;;;;;;;;;;;;;13.93;78.86;101274.59;7357336;19;19927;-58
2022/11/02 09:00:41;;;;;;;;;;;;;;;13.98;78.96;101280.22;7361231;19;19986;-57
2022/11/02 09:03:10;;;;;;;;;;;;;;;14.05;79.45;101271.47;7360818;19;20255;-60
2022/11/02 09:05:39;;;;;;;;;;;;;;;14.13;80.05;101268.81;7356808;19;19918;-55
2022/11/02 09:08:08;;;;;;;;;;;;;;;14.20;80.38;101257.56;7359848;19;19930;-57
2022/11/02 09:10:36;;;;;;;;;;;;;;;14.23;78.95;101266.00;7361858;19;19923;-59
2022/11/02 09:13:05;;;;;;;;;;;;;;;14.29;78.65;101261.88;7354576;19;20641;-56
2022/11/02 09:15:34;;;;;;;;;;;;;;;14.34;78.46;101259.56;7359233;19;19926;-60
2022/11/02 09:18:02;;;;;;;;;;;;;;;14.40;78.65;101248.34;7360688;19;21234;-55
2022/11/02 09:20:29;;;;;;;;;;;;;;;14.42;77.72;101259.59;7358560;19;20484;-59
2022/11/02 09:22:57;;;;;;;;;;;;;;;14.48;77.62;101253.59;7358992;19;19926;-59
2022/11/02 09:25:24;;;;;;;;;;;;;;;14.52;77.18;101244.34;7361232;19;19922;-56
2022/11/02 09:27:53;;;;;;;;;;;;;;;14.54;77.28;101240.53;7356720;19;20291;-56
2022/11/02 09:30:22;;;;;;;;;;;;;;;14.59;77.09;101239.19;7359565;19;20002;-58
2022/11/02 09:32:54;;;;;;;;;;;;;;;14.64;77.29;101244.81;7359088;19;19942;-61
2022/11/02 09:35:21;;;;;;;;;;;;;;;14.72;77.39;101240.34;7361203;19;20002;-57
2022/11/02 09:37:49;;;;;;;;;;;;;;;14.77;77.44;101235.38;7358518;19;19927;-58
2022/11/02 09:40:19;;;;;;;;;;;;;;;14.78;77.31;101231.69;7357634;19;19914;-58
2022/11/02 09:42:55;;;;;;;;;;;;;;;14.79;76.68;101235.16;7358925;19;19933;-56
2022/11/02 09:45:23;;;;;;;;;;;;;;;14.82;76.21;101238.31;7359648;19;20561;-57
2022/11/02 09:47:53;;;;;;;;;;;;;;;14.88;76.82;101231.53;7360915;19;19922;-57
2022/11/02 09:50:45;;;;;;;;;;;;;;;14.96;76.36;101234.13;7358946;19;19926;-56
2022/11/02 09:53:18;;;;;;;;;;;;;;;14.99;75.26;101226.66;7362782;19;19925;-60
2022/11/02 09:55:51;;;;;;;;;;;;;;;15.06;75.55;101231.28;7360271;19;19959;-59
2022/11/02 09:58:22;;;;;;;;;;;;;;;15.12;75.81;101233.25;7356029;19;19972;-57
2022/11/02 10:00:51;;;;;;;;;;;;;;;15.17;76.26;101228.25;7361229;19;20253;-56
2022/11/02 10:03:27;;;;;;;;;;;;;;;15.19;75.29;101236.84;7357038;19;19935;-57
2022/11/02 10:05:58;;;;;;;;;;;;;;;15.19;73.99;101227.06;7355765;19;20392;-58
2022/11/02 10:08:35;;;;;;;;;;;;;;;15.22;74.87;101225.91;7358151;19;19934;-56
2022/11/02 10:11:12;;;;;;;;;;;;;;;15.27;75.55;101226.22;7360342;19;19914;-59
2022/11/02 10:13:44;;;;;;;;;;;;;;;15.25;73.95;101228.19;7354532;19;19976;-60
2022/11/02 10:16:16;;;;;;;;;;;;;;;15.29;74.69;101227.69;7359811;19;19998;-56
2022/11/02 10:18:48;;;;;;;;;;;;;;;15.31;73.69;101224.88;7357072;19;20001;-57
2022/11/02 10:21:19;;;;;;;;;;;;;;;15.35;74.94;101218.22;7356414;19;19933;-58
2022/11/02 10:23:56;;;;;;;;;;;;;;;15.38;74.30;101226.66;7357259;19;19927;-56
2022/11/02 10:26:26;;;;;;;;;;;;;;;15.42;73.82;101219.19;7358320;19;20545;-56
2022/11/02 10:28:58;;;;;;;;;;;;;;;15.47;74.51;101221.31;7355325;19;21418;-56
2022/11/02 10:31:29;;;;;;;;;;;;;;;15.50;74.17;101207.69;7359031;19;19939;-58
2022/11/02 10:33:58;;;;;;;;;;;;;;;15.51;73.80;101201.38;7356790;19;20276;-59
2022/11/02 10:36:31;;;;;;;;;;;;;;;15.53;73.98;101210.03;7357773;19;19931;-57
2022/11/02 10:39:02;;;;;;;;;;;;;;;15.56;75.16;101197.22;7357676;19;19919;-56
2022/11/02 10:41:37;;;;;;;;;;;;;;;15.59;74.65;101202.19;7357751;19;19923;-58
2022/11/02 10:44:05;;;;;;;;;;;;;;;15.63;74.69;101194.72;7355153;19;20483;-57
2022/11/02 10:46:42;;;;;;;;;;;;;;;15.68;74.90;101201.13;7359705;19;20276;-57
2022/11/02 10:49:09;;;;;;;;;;;;;;;15.73;74.43;101188.16;7357422;19;19918;-57
2022/11/02 10:51:36;;;;;;;;;;;;;;;15.75;74.44;101188.78;7358545;19;20218;-58
2022/11/02 10:54:10;;;;;;;;;;;;;;;15.74;74.07;101181.88;7362322;19;19986;-57
2022/11/02 10:56:37;;;;;;;;;;;;;;;15.76;75.19;101179.84;7364382;19;19915;-54
2022/11/02 10:59:11;;;;;;;;;;;;;;;15.76;75.58;101166.56;7362558;19;19953;-58
2022/11/02 11:01:44;;;;;;;;;;;;;;;15.80;76.05;101164.38;7362892;19;19934;-59
2022/11/02 11:04:20;;;;;;;;;;;;;;;15.81;75.10;101156.25;7363633;19;19928;-57
2022/11/02 11:06:47;;;;;;;;;;;;;;;15.85;75.51;101145.28;7363450;19;20415;-57
2022/11/02 11:09:15;;;;;;;;;;;;;;;15.88;75.75;101147.56;7363655;19;19929;-57
2022/11/02 11:11:52;;;;;;;;;;;;;;;15.95;76.44;101135.25;7361643;19;19919;-57
2022/11/02 11:14:20;;;;;;;;;;;;;;;16.02;76.52;101133.50;7366527;19;20043;-58
2022/11/02 11:17:17;;;;;;;;;;;;;;;16.05;74.79;101114.56;7364078;19;19919;-52
2022/11/02 11:20:06;;;;;;;;;;;;;;;16.06;74.51;101110.91;7363568;19;20344;-57
2022/11/02 11:22:36;;;;;;;;;;;;;;;16.06;74.88;101109.06;7365760;19;21594;-57
2022/11/02 11:25:13;;;;;;;;;;;;;;;16.08;74.98;101108.91;7364162;19;19935;-61
2022/11/02 11:27:44;;;;;;;;;;;;;;;16.06;73.76;101095.78;7362238;19;20898;-56
2022/11/02 11:30:21;;;;;;;;;;;;;;;16.07;73.90;101099.28;7361575;19;20347;-57
2022/11/02 11:33:14;;;;;;;;;;;;;;;16.08;74.03;101108.91;7365413;19;19922;-57
2022/11/02 11:35:46;;;;;;;;;;;;;;;16.08;73.10;101096.44;7363966;19;19922;-55
2022/11/02 11:38:16;;;;;;;;;;;;;;;16.08;73.28;101098.28;7363226;19;19931;-57
2022/11/02 11:40:45;;;;;;;;;;;;;;;16.05;72.37;101094.13;7363160;19;19926;-54
2022/11/02 11:43:15;;;;;;;;;;;;;;;16.01;72.52;101092.84;7362673;19;19923;-57
2022/11/02 11:45:51;;;;;;;;;;;;;;;16.03;72.95;101090.84;7361014;19;20005;-58
2022/11/02 11:48:28;;;;;;;;;;;;;;;16.03;72.98;101080.25;7363571;19;19922;-56
2022/11/02 11:50:56;;;;;;;;;;;;;;;16.01;74.68;101066.31;7365295;19;20573;-57
2022/11/02 11:53:25;;;;;;;;;;;;;;;16.01;74.14;101070.78;7365985;19;19914;-58
2022/11/02 11:55:54;;;;;;;;;;;;;;;16.00;74.48;101062.00;7364212;19;20423;-57
2022/11/02 11:58:21;;;;;;;;;;;;;;;16.01;75.25;101066.31;7359594;19;19927;-57
2022/11/02 12:00:58;;;;;;;;;;;;;;;15.98;75.53;101053.41;7358807;19;20001;-58
2022/11/02 12:03:25;;;;;;;;;;;;;;;16.00;76.06;101063.88;7363130;19;19919;-57
2022/11/02 12:06:01;;;;;;;;;;;;;;;16.00;75.52;101051.38;7361730;19;21087;-56
2022/11/02 12:08:32;;;;;;;;;;;;;;;15.99;74.67;101035.66;7363297;19;19922;-55
2022/11/02 12:11:04;;;;;;;;;;;;;;;15.99;74.02;101038.31;7364327;19;19983;-58
2022/11/02 12:13:41;;;;;;;;;;;;;;;15.99;74.55;101031.19;7360362;19;19929;-60
2022/11/02 12:16:18;;;;;;;;;;;;;;;16.00;73.89;101024.84;7362762;19;19914;-59
2022/11/02 12:18:55;;;;;;;;;;;;;;;16.01;74.57;101012.41;7362720;19;19919;-58
2022/11/02 12:21:31;;;;;;;;;;;;;;;16.02;73.93;101009.56;7365419;19;19926;-58
2022/11/02 12:24:05;;;;;;;;;;;;;;;16.03;72.73;101015.69;7364022;19;20948;-57
2022/11/02 12:26:40;;;;;;;;;;;;;;;16.04;73.18;101006.75;7362015;19;19923;-59
2022/11/02 12:29:20;;;;;;;;;;;;;;;16.02;72.68;101006.09;7362023;19;20273;-56
2022/11/02 12:32:01;;;;;;;;;;;;;;;16.04;73.40;101002.25;7361983;19;19919;-58
2022/11/02 12:34:32;;;;;;;;;;;;;;;16.07;73.74;101001.88;7359608;19;19926;-55
2022/11/02 12:36:59;;;;;;;;;;;;;;;16.08;74.12;101000.88;7361915;19;21588;-53
2022/11/02 12:39:47;;;;;;;;;;;;;;;16.08;73.03;100982.28;7361510;19;19958;-57
2022/11/02 12:42:15;;;;;;;;;;;;;;;16.08;73.07;100981.47;7360408;19;20402;-57
2022/11/02 12:44:49;;;;;;;;;;;;;;;16.09;72.46;100983.13;7359372;19;20006;-57
2022/11/02 12:47:28;;;;;;;;;;;;;;;16.10;71.18;100974.16;7359288;19;19965;-58
2022/11/02 12:49:59;;;;;;;;;;;;;;;16.10;70.81;100972.28;7362101;19;19927;-58
2022/11/02 12:52:34;;;;;;;;;;;;;;;16.14;72.30;100956.84;7363229;19;19925;-56
2022/11/02 12:55:04;;;;;;;;;;;;;;;16.15;71.43;100953.97;7361465;19;19928;-59
2022/11/02 12:57:35;;;;;;;;;;;;;;;16.16;70.74;100963.59;7358855;19;19923;-55